Latest Weather Observations for Oenpelli Airport

IDD60801

Issued at 7:31 pm CST Sunday 22 January 2017 (issued every 30 minutes, with the page automatically refreshed every 10 minutes)

About weather observations | Map of weather stations | Latest weather observations for NT | Other Formats
Station Details ID: 014310 Name: OENPELLI AIRPORT Lat: -12.33 Lon: 133.01 Height: 7.5 m
Data from the previous 72 hours. | See also: Recent months at Oenpelli Airport
Date/Time
CST
Temp
°C
App
Temp
°C
Dew
Point
°C
Rel
Hum
%
Delta-T
°C
Wind Press
QNH
hPa
Press
MSL
hPa
Rain since
9am
mm
Dir  Spd
km/h
Gust
km/h
Spd
kts
Gust
kts
22/07:00pm 24.7 29.1 24.4 98 0.2 W 9 17 5 9 1008.3 1008.2 20.0
22/06:30pm 25.2 30.1 24.3 95 0.6 NW 6 11 3 6 1007.7 1007.6 17.0
22/06:00pm 25.2 31.0 24.0 93 0.8 CALM 0 2 0 1 1007.2 1007.1 17.0
22/05:30pm 25.0 30.8 24.0 94 0.7 CALM 0 2 0 1 1006.7 1006.6 17.0
22/05:00pm 24.9 30.1 24.2 96 0.5 NW 4 7 2 4 1006.0 1005.9 17.0
22/04:30pm 24.8 30.0 24.8 100 0.0 NW 6 9 3 5 1006.1 1006.0 17.0
22/04:00pm 24.6 28.7 24.6 100 0.0 NW 11 20 6 11 1006.4 1006.3 16.8
22/03:30pm 24.3 28.2 24.3 100 0.0 NW 11 17 6 9 1006.2 1006.1 16.8
22/03:00pm 24.0 27.6 23.8 99 0.1 SW 11 17 6 9 1006.5 1006.4 13.8
22/02:30pm 27.3 31.1 24.7 86 1.8 NW 13 30 7 16 1006.7 1006.6 2.4
22/02:00pm 28.4 31.0 23.3 74 3.5 WSW 15 26 8 14 1006.2 1006.1 0.2
22/01:30pm 32.7 37.5 24.5 62 5.8 S 7 11 4 6 1006.2 1006.1 0.2
22/01:00pm 31.8 36.6 24.4 65 5.2 SW 7 13 4 7 1006.9 1006.8 0.2
22/12:30pm 31.7 36.1 25.1 68 4.7 SW 11 19 6 10 1007.5 1007.4 0.2
22/12:00pm 31.5 35.2 24.6 67 4.8 WSW 13 19 7 10 1008.3 1008.2 0.2
22/11:30am 31.4 36.1 25.5 71 4.2 WSW 11 19 6 10 1008.4 1008.3 0.2
22/11:00am 30.8 34.2 24.7 70 4.3 SW 15 22 8 12 1008.9 1008.8 0.2
22/10:30am 30.3 34.2 24.9 73 3.8 SW 13 19 7 10 1009.2 1009.1 0.0
22/10:00am 30.0 34.7 25.5 77 3.2 WSW 11 17 6 9 1009.2 1009.1 0.0
22/09:30am 28.5 33.8 25.3 83 2.3 SW 7 11 4 6 1009.4 1009.3 0.0
22/09:00am 28.1 33.3 25.1 84 2.1 WSW 7 13 4 7 1009.5 1009.4 5.0
22/08:30am 27.8 33.6 25.8 89 1.4 WSW 6 11 3 6 1009.5 1009.4 5.0
22/08:00am 27.2 33.7 26.3 95 0.6 W 4 9 2 5 1009.6 1009.5 5.0
22/07:30am 26.9 33.8 26.9 100 0.0 WSW 4 9 2 5 1009.4 1009.3 5.0
22/07:00am 26.4 32.6 26.4 100 0.0 SW 6 7 3 4 1009.0 1008.9 5.0
22/06:30am 26.2 32.7 26.2 100 0.0 SW 4 6 2 3 1008.8 1008.7 5.0
22/06:00am 26.2 32.7 26.2 100 0.0 WNW 4 6 2 3 1008.5 1008.4 5.0
22/05:30am 26.4 33.8 26.4 100 0.0 CALM 0 2 0 1 1007.9 1007.8 4.8
22/05:00am 26.3 33.6 26.3 100 0.0 CALM 0 0 0 0 1007.8 1007.7 4.8
22/04:30am 26.3 33.6 26.3 100 0.0 CALM 0 0 0 0 1008.1 1008.0 4.2
22/04:00am 26.3 33.2 26.3 100 0.0 WNW 2 2 1 1 1008.4 1008.3 3.4
22/03:30am 26.3 33.2 26.3 100 0.0 WNW 2 4 1 2 1008.7 1008.6 3.0
22/03:00am 26.4 33.2 26.2 99 0.1 WNW 2 2 1 1 1009.0 1008.9 2.2
22/02:30am 26.6 33.4 26.1 97 0.4 WNW 2 4 1 2 1009.1 1009.0 1.4
22/02:00am 26.8 34.1 26.3 97 0.4 CALM 0 0 0 0 1009.1 1009.0 0.6
22/01:30am 27.2 34.8 26.7 97 0.4 CALM 0 0 0 0 1009.3 1009.2 0.4
22/01:00am 27.3 34.5 26.2 94 0.8 CALM 0 0 0 0 1009.6 1009.5 0.0
22/12:30am 27.3 34.5 26.2 94 0.8 CALM 0 0 0 0 1009.9 1009.8 0.0
22/12:00am 27.3 34.7 26.4 95 0.6 CALM 0 0 0 0 1010.3 1010.2 0.0
 
Date/Time
CST
Temp
°C
App
Temp
°C
Dew
Point
°C
Rel
Hum
%
Delta-T
°C
Wind Press
QNH
hPa
Press
MSL
hPa
Rain since
9am
mm
Dir  Spd
km/h
Gust
km/h
Spd
kts
Gust
kts
21/11:30pm 27.4 34.5 26.0 92 1.0 CALM 0 0 0 0 1010.5 1010.4 0.0
21/11:00pm 27.6 35.0 26.4 93 0.9 CALM 0 0 0 0 1010.5 1010.4 0.0
21/10:30pm 27.8 35.2 26.4 92 1.0 CALM 0 0 0 0 1010.6 1010.5 0.0
21/10:00pm 27.9 34.8 25.7 88 1.6 CALM 0 0 0 0 1010.2 1010.1 0.0
21/09:30pm 27.8 34.5 25.4 87 1.7 CALM 0 0 0 0 1010.1 1010.0 0.0
21/09:00pm 27.8 34.4 25.2 86 1.8 CALM 0 4 0 2 1009.6 1009.5 0.0
21/08:30pm 27.9 33.7 25.1 85 2.0 WNW 4 6 2 3 1009.5 1009.4 0.0
21/08:00pm 28.0 32.9 24.6 82 2.4 WNW 7 11 4 6 1008.9 1008.8 0.0
21/07:30pm 28.4 33.5 24.6 80 2.7 WNW 6 9 3 5 1008.6 1008.5 0.0
21/07:00pm 28.9 32.5 23.8 74 3.5 WNW 11 19 6 10 1008.2 1008.1 0.0
21/06:30pm 29.4 33.3 23.6 71 4.0 WNW 9 15 5 8 1007.7 1007.6 0.0
21/06:00pm 29.6 33.8 24.7 75 3.4 NW 11 17 6 9 1007.1 1007.0 0.0
21/05:30pm 31.2 35.8 24.8 69 4.5 WNW 9 17 5 9 1007.0 1006.9 0.0
21/05:00pm 31.2 34.3 24.1 66 4.9 WNW 15 24 8 13 1006.6 1006.5 0.0
21/04:30pm 32.4 35.4 24.7 64 5.4 WNW 17 24 9 13 1006.3 1006.2 0.0
21/04:00pm 31.7 34.9 24.3 65 5.2 WNW 15 24 8 13 1006.7 1006.6 0.0
21/03:30pm 33.3 36.6 24.5 60 6.2 WNW 15 28 8 15 1006.5 1006.4 0.0
21/03:00pm 32.8 35.2 22.9 56 6.8 W 15 24 8 13 1007.0 1006.9 0.0
21/02:30pm 33.2 36.1 23.8 57 6.6 W 15 20 8 11 1007.0 1006.9 0.0
21/02:00pm 31.8 36.0 24.1 63 5.4 W 9 17 5 9 1007.4 1007.3 0.0
21/01:30pm 31.4 36.4 24.8 68 4.6 WNW 7 13 4 7 1008.0 1007.9 0.0
21/01:00pm 30.9 35.3 24.5 68 4.5 W 9 15 5 8 1008.5 1008.4 0.0
21/12:30pm 29.9 34.8 25.2 76 3.3 WNW 9 15 5 8 1009.1 1009.0 0.0
21/12:00pm 31.0 36.5 25.6 73 3.8 WNW 7 13 4 7 1009.6 1009.5 0.0
21/11:30am 31.1 36.4 26.4 76 3.4 WNW 11 20 6 11 1010.0 1009.9 0.0
21/11:00am 29.7 34.7 24.8 75 3.4 WNW 7 15 4 8 1010.3 1010.2 0.0
21/10:30am 29.5 35.1 25.5 79 2.8 W 6 9 3 5 1010.6 1010.5 0.0
21/10:00am 28.5 34.4 25.3 83 2.2 SW 4 6 2 3 1011.0 1010.9 0.0
21/09:30am 28.1 34.5 25.5 86 1.8 N 2 6 1 3 1011.3 1011.2 0.0
21/09:00am 27.5 34.4 25.7 90 1.3 CALM 0 0 0 0 1011.2 1011.1 14.2
21/08:30am 27.1 33.9 25.5 91 1.1 CALM 0 2 0 1 1010.9 1010.8 14.2
21/08:00am 25.8 32.8 25.8 100 0.0 CALM 0 0 0 0 1010.6 1010.5 14.2
21/07:30am 25.6 32.4 25.6 100 0.0 CALM 0 0 0 0 1010.4 1010.3 14.2
21/07:00am 25.2 31.8 25.2 100 0.0 CALM 0 0 0 0 1010.2 1010.1 14.2
21/06:30am 25.1 31.2 25.1 100 0.0 N 2 6 1 3 1009.6 1009.5 14.2
21/06:00am 25.1 31.6 25.1 100 0.0 CALM 0 2 0 1 1009.2 1009.1 14.0
21/05:30am 24.9 31.3 24.9 100 0.0 CALM 0 0 0 0 1008.9 1008.8 14.0
21/05:00am 25.0 31.5 25.0 100 0.0 CALM 0 0 0 0 1008.7 1008.6 14.0
21/04:30am 25.0 31.5 25.0 100 0.0 CALM 0 0 0 0 1008.6 1008.5 14.0
21/04:00am 25.1 31.6 25.1 100 0.0 CALM 0 0 0 0 1008.8 1008.7 14.0
21/03:30am 25.0 31.5 25.0 100 0.0 CALM 0 0 0 0 1008.9 1008.8 14.0
21/03:00am 25.1 31.2 25.1 100 0.0 N 2 6 1 3 1008.8 1008.7 14.0
21/02:30am 25.2 31.4 25.2 100 0.0 N 2 6 1 3 1008.7 1008.6 14.0
21/02:00am 25.3 31.9 25.3 100 0.0 CALM 0 2 0 1 1009.0 1008.9 14.0
21/01:30am 25.2 31.8 25.2 100 0.0 CALM 0 0 0 0 1009.1 1009.0 14.0
21/01:00am 25.2 31.8 25.2 100 0.0 CALM 0 0 0 0 1009.5 1009.4 14.0
21/12:30am 25.3 31.9 25.3 100 0.0 CALM 0 0 0 0 1009.8 1009.7 14.0
21/12:00am 25.2 31.8 25.2 100 0.0 CALM 0 0 0 0 1010.1 1010.0 13.8
 
Date/Time
CST
Temp
°C
App
Temp
°C
Dew
Point
°C
Rel
Hum
%
Delta-T
°C
Wind Press
QNH
hPa
Press
MSL
hPa
Rain since
9am
mm
Dir  Spd
km/h
Gust
km/h
Spd
kts
Gust
kts
20/11:30pm 25.2 31.8 25.2 100 0.0 CALM 0 0 0 0 1010.2 1010.1 13.8
20/11:00pm 25.1 31.2 25.1 100 0.0 ENE 2 4 1 2 1010.4 1010.3 13.8
20/10:30pm 25.0 30.7 25.0 100 0.0 ESE 4 6 2 3 1010.4 1010.3 13.8
20/10:00pm 25.2 31.0 25.2 100 0.0 E 4 6 2 3 1010.4 1010.3 13.8
20/09:30pm 25.1 30.9 25.1 100 0.0 E 4 6 2 3 1010.2 1010.1 13.8
20/09:00pm 25.1 31.6 25.1 100 0.0 CALM 0 2 0 1 1010.0 1009.9 13.8
20/08:30pm 25.2 31.8 25.2 100 0.0 CALM 0 0 0 0 1009.7 1009.6 13.8
20/08:00pm 25.1 31.5 24.9 99 0.1 CALM 0 0 0 0 1009.1 1009.0 13.6
20/07:30pm 25.0 31.3 24.8 99 0.1 CALM 0 0 0 0 1008.6 1008.5 13.4
20/07:00pm 24.9 30.9 24.9 100 0.0 S 2 7 1 4 1008.5 1008.4 12.6
20/06:30pm 24.8 30.3 24.6 99 0.1 SW 4 7 2 4 1008.4 1008.3 12.2
20/06:00pm 24.8 29.8 24.5 98 0.2 SW 6 9 3 5 1007.9 1007.8 12.0
20/05:30pm 25.2 28.3 23.6 91 1.1 SW 13 24 7 13 1007.7 1007.6 10.6
20/05:00pm 28.3 32.2 24.3 79 2.8 WNW 11 17 6 9 1006.9 1006.8 10.6
20/04:30pm 28.7 32.6 24.9 80 2.7 WNW 13 22 7 12 1006.9 1006.8 10.6
20/04:00pm 28.9 33.5 25.3 81 2.5 NW 11 17 6 9 1006.4 1006.3 10.6
20/03:30pm 27.8 34.5 26.0 90 1.3 ESE 2 4 1 2 1006.7 1006.6 10.6
20/03:00pm 26.9 32.8 25.9 94 0.7 ESE 6 7 3 4 1006.7 1006.6 10.6
20/02:30pm 26.2 31.7 25.3 95 0.6 ESE 6 9 3 5 1006.7 1006.6 10.6
20/02:00pm 26.2 30.4 25.3 95 0.6 SE 13 20 7 11 1007.4 1007.3 10.4
20/01:30pm 29.4 33.9 25.2 78 3.0 N 11 19 6 10 1007.4 1007.3 0.4
20/01:00pm 30.6 35.2 25.9 76 3.3 N 13 20 7 11 1007.6 1007.5 0.4
20/12:30pm 29.8 34.7 24.7 74 3.6 NW 7 15 4 8 1007.7 1007.6 0.4
20/12:00pm 29.9 34.9 25.4 77 3.2 W 9 24 5 13 1008.3 1008.2 0.4
20/11:30am 28.4 33.8 25.4 84 2.1 W 7 17 4 9 1008.7 1008.6 0.4
20/11:00am 30.2 34.5 25.5 76 3.3 W 13 20 7 11 1009.2 1009.1 0.0
20/10:30am 29.8 34.2 25.1 76 3.3 NW 11 17 6 9 1009.4 1009.3 0.0
20/10:00am 29.1 34.5 25.1 79 2.8 WNW 6 9 3 5 1009.6 1009.5 0.0
20/09:30am 28.8 34.4 24.8 79 2.8 WNW 4 9 2 5 1009.8 1009.7 0.0
20/09:00am 28.0 34.0 24.2 80 2.6 CALM 0 6 0 3 1009.7 1009.6 9.2
20/08:30am 27.7 34.0 24.7 84 2.1 CALM 0 0 0 0 1009.4 1009.3 9.2
20/08:00am 26.4 32.7 24.8 91 1.1 CALM 0 0 0 0 1009.1 1009.0 9.2
20/07:30am 25.4 32.1 25.4 100 0.0 CALM 0 0 0 0 1008.9 1008.8 9.2
20/07:00am 24.5 30.3 24.5 100 0.0 SW 2 4 1 2 1008.3 1008.2 9.2
20/06:30am 24.5 30.6 24.5 100 0.0 CALM 0 0 0 0 1008.0 1007.9 9.2
20/06:00am 24.7 31.0 24.7 100 0.0 CALM 0 0 0 0 1007.7 1007.6 9.2
20/05:30am 24.8 31.1 24.8 100 0.0 CALM 0 0 0 0 1007.5 1007.4 9.2
20/05:00am 24.9 31.3 24.9 100 0.0 CALM 0 0 0 0 1007.6 1007.5 9.2
20/04:30am 24.9 31.3 24.9 100 0.0 CALM 0 0 0 0 1007.7 1007.6 9.2
20/04:00am 25.0 31.5 25.0 100 0.0 CALM 0 0 0 0 1007.7 1007.6 9.2
20/03:30am 24.9 30.9 24.9 100 0.0 NNE 2 2 1 1 1007.8 1007.7 9.2
20/03:00am 24.7 30.2 24.7 100 0.0 N 4 4 2 2 1007.9 1007.8 9.2
20/02:30am 24.6 30.1 24.6 100 0.0 E 4 6 2 3 1008.1 1008.0 9.2
20/02:00am 24.7 29.8 24.7 100 0.0 E 6 7 3 4 1008.6 1008.5 9.0
20/01:30am 24.8 31.1 24.8 100 0.0 CALM 0 4 0 2 1009.1 1009.0 8.8
20/01:00am 24.6 30.8 24.6 100 0.0 CALM 0 0 0 0 1009.3 1009.2 8.6
20/12:30am 24.5 29.8 24.3 99 0.1 N 4 7 2 4 1009.7 1009.6 8.2
20/12:00am 24.7 29.5 24.5 99 0.1 NNW 7 11 4 6 1010.4 1010.3 7.2
 
Date/Time
CST
Temp
°C
App
Temp
°C
Dew
Point
°C
Rel
Hum
%
Delta-T
°C
Wind Press
QNH
hPa
Press
MSL
hPa
Rain since
9am
mm
Dir  Spd
km/h
Gust
km/h
Spd
kts
Gust
kts
19/11:30pm 24.8 30.6 24.5 98 0.2 SW 2 6 1 3 1010.3 1010.2 6.8
19/11:00pm 24.7 29.8 24.7 100 0.0 SSE 6 9 3 5 1010.1 1010.0 6.4
19/10:30pm 24.1 28.8 23.9 99 0.1 SW 6 11 3 6 1010.0 1009.9 6.2
19/10:00pm 24.2 27.8 23.7 97 0.3 SSW 11 20 6 11 1010.0 1009.9 6.0
19/09:30pm 24.3 28.1 24.0 98 0.2 SSW 11 17 6 9 1009.9 1009.8 5.8
19/09:00pm 24.5 27.6 23.5 94 0.7 SW 13 24 7 13 1009.8 1009.7 3.2
19/08:30pm 28.3 33.6 24.9 82 2.4 WNW 6 9 3 5 1009.0 1008.9 0.0
19/08:00pm 28.2 33.3 24.6 81 2.5 WNW 6 7 3 4 1008.4 1008.3 0.0

Other Formats:

Comma delimited format used in spreadsheet applications
http://www.bom.gov.au/fwo/IDD60801/IDD60801.94110.axf

JavaScript Object Notation format (JSON) in row-major order
http://www.bom.gov.au/fwo/IDD60801/IDD60801.94110.json